Time;durP1;ratioP1;P1;durP2;ratioP2;P2;SDS_P1;SDS_P2;PMS_P1;PMS_P2;Temp;Humidity;BMP_temperature;BMP_pressure;BME280_temperature;BME280_humidity;BME280_pressure;Samples;Min_cycle;Max_cycle;Signal;HPM_P1;HPM_P2
2023/06/06 00:00:59;;;;;;;14.30;9.75;;;;;;;;;;5054753;28;20485;-65
2023/06/06 00:03:26;;;;;;;19.13;9.70;;;;;;;;;;5054962;28;20031;-65
2023/06/06 00:05:53;;;;;;;19.05;9.32;;;;;;;;;;5054520;28;20039;-65
2023/06/06 00:08:23;;;;;;;16.35;9.15;;;;;;;;;;5053243;28;20036;-65
2023/06/06 00:10:50;;;;;;;13.77;8.83;;;;;;;;;;5054880;28;20037;-65
2023/06/06 00:13:18;;;;;;;13.02;8.48;;;;;;;;;;5054743;28;20028;-65
2023/06/06 00:15:44;;;;;;;14.38;8.63;;;;;;;;;;5054533;28;20033;-65
2023/06/06 00:18:11;;;;;;;15.77;8.05;;;;;;;;;;5054353;28;20017;-65
2023/06/06 00:20:39;;;;;;;10.63;7.93;;;;;;;;;;5054274;28;20515;-65
2023/06/06 00:23:07;;;;;;;13.07;7.72;;;;;;;;;;5054019;28;20517;-65
2023/06/06 00:25:33;;;;;;;11.52;8.02;;;;;;;;;;5054323;28;20024;-65
2023/06/06 00:27:59;;;;;;;12.93;7.43;;;;;;;;;;5054618;28;20039;-65
2023/06/06 00:30:26;;;;;;;10.25;7.72;;;;;;;;;;5054268;28;20501;-65
2023/06/06 00:32:53;;;;;;;9.93;7.00;;;;;;;;;;5054338;28;20021;-65
2023/06/06 00:35:19;;;;;;;12.57;7.20;;;;;;;;;;5054166;28;20404;-65
2023/06/06 00:37:46;;;;;;;12.95;6.45;;;;;;;;;;5053965;28;20021;-65
2023/06/06 00:40:12;;;;;;;11.68;6.97;;;;;;;;;;5053791;28;20047;-65
2023/06/06 00:42:39;;;;;;;12.55;6.78;;;;;;;;;;5054113;28;20027;-65
2023/06/06 00:45:06;;;;;;;13.35;7.20;;;;;;;;;;5054274;28;20025;-65
2023/06/06 00:47:32;;;;;;;10.02;6.95;;;;;;;;;;5053654;28;20072;-65
2023/06/06 00:49:59;;;;;;;23.40;8.38;;;;;;;;;;5053972;28;20021;-65
2023/06/06 00:52:25;;;;;;;26.35;8.20;;;;;;;;;;5053593;28;20485;-65
2023/06/06 00:54:52;;;;;;;16.95;9.00;;;;;;;;;;5053746;28;20568;-65
2023/06/06 00:57:18;;;;;;;17.20;8.65;;;;;;;;;;5053968;28;20079;-65
2023/06/06 00:59:46;;;;;;;11.18;7.63;;;;;;;;;;5053628;28;20090;-65
2023/06/06 01:02:17;;;;;;;17.10;8.23;;;;;;;;;;5053754;28;20079;-64
2023/06/06 01:04:44;;;;;;;15.23;8.23;;;;;;;;;;5053164;28;20021;-65
2023/06/06 01:07:12;;;;;;;14.30;7.00;;;;;;;;;;5053466;28;20021;-65
2023/06/06 01:09:40;;;;;;;11.60;7.07;;;;;;;;;;5053497;28;20029;-65
2023/06/06 01:12:15;;;;;;;9.55;6.50;;;;;;;;;;5053309;28;20039;-65
2023/06/06 01:14:48;;;;;;;12.43;7.20;;;;;;;;;;5053284;28;20020;-65
2023/06/06 01:17:17;;;;;;;9.25;6.45;;;;;;;;;;5053498;28;20033;-65
2023/06/06 01:19:44;;;;;;;10.68;6.82;;;;;;;;;;5053065;28;20127;-65
2023/06/06 01:22:13;;;;;;;15.02;7.75;;;;;;;;;;5053052;28;20025;-65
2023/06/06 01:24:44;;;;;;;14.88;7.13;;;;;;;;;;5053193;28;20052;-65
2023/06/06 01:27:10;;;;;;;12.60;7.43;;;;;;;;;;5053082;28;20025;-65
2023/06/06 01:29:37;;;;;;;13.95;6.97;;;;;;;;;;5052978;28;20029;-65
2023/06/06 01:32:08;;;;;;;14.02;7.60;;;;;;;;;;5053101;28;20021;-65
2023/06/06 01:34:36;;;;;;;11.30;7.70;;;;;;;;;;5052828;28;20036;-65
2023/06/06 01:37:15;;;;;;;10.02;7.25;;;;;;;;;;5053012;28;20401;-65
2023/06/06 01:39:43;;;;;;;11.38;7.18;;;;;;;;;;5053150;28;20017;-65
2023/06/06 01:42:10;;;;;;;10.68;7.57;;;;;;;;;;5051772;28;20021;-65
2023/06/06 01:44:38;;;;;;;14.50;7.40;;;;;;;;;;5052584;28;20017;-65
2023/06/06 01:47:04;;;;;;;29.73;6.78;;;;;;;;;;5052792;28;20025;-65
2023/06/06 01:49:32;;;;;;;10.43;7.90;;;;;;;;;;5052453;28;20028;-65
2023/06/06 01:51:59;;;;;;;16.52;7.20;;;;;;;;;;5052786;28;20392;-65
2023/06/06 01:54:26;;;;;;;12.95;7.47;;;;;;;;;;5053033;28;20031;-65
2023/06/06 01:56:52;;;;;;;10.70;7.35;;;;;;;;;;5052431;28;20032;-65
2023/06/06 01:59:19;;;;;;;13.32;7.88;;;;;;;;;;5052763;28;20029;-65
2023/06/06 02:01:46;;;;;;;16.80;7.53;;;;;;;;;;5052280;28;20510;-65
2023/06/06 02:04:12;;;;;;;18.02;7.72;;;;;;;;;;5052425;28;20031;-65
2023/06/06 02:06:39;;;;;;;30.35;8.60;;;;;;;;;;5052589;28;20381;-65
2023/06/06 02:09:06;;;;;;;14.90;7.38;;;;;;;;;;5052358;28;20021;-65
2023/06/06 02:11:32;;;;;;;35.90;8.30;;;;;;;;;;5052268;28;20023;-65
2023/06/06 02:13:59;;;;;;;23.25;7.57;;;;;;;;;;5052232;28;20048;-65
2023/06/06 02:16:28;;;;;;;13.63;7.95;;;;;;;;;;5052067;28;20040;-65
2023/06/06 02:18:55;;;;;;;21.60;8.32;;;;;;;;;;5052134;28;20481;-65
2023/06/06 02:21:21;;;;;;;14.43;8.18;;;;;;;;;;5052499;28;20033;-65
2023/06/06 02:23:48;;;;;;;10.65;7.95;;;;;;;;;;5052042;28;20041;-65
2023/06/06 02:26:15;;;;;;;14.05;7.72;;;;;;;;;;5052091;28;20017;-65
2023/06/06 02:28:41;;;;;;;12.45;8.05;;;;;;;;;;5052121;28;20025;-65
2023/06/06 02:31:08;;;;;;;11.93;7.22;;;;;;;;;;5051422;28;20013;-65
2023/06/06 02:33:34;;;;;;;9.80;7.18;;;;;;;;;;5051747;28;20431;-65
2023/06/06 02:36:01;;;;;;;9.05;7.43;;;;;;;;;;5052174;28;20037;-64
2023/06/06 02:38:27;;;;;;;8.70;6.85;;;;;;;;;;5051854;28;20025;-64
2023/06/06 02:40:54;;;;;;;8.88;6.82;;;;;;;;;;5052156;28;20029;-65
2023/06/06 02:43:20;;;;;;;16.17;7.13;;;;;;;;;;5052332;28;20017;-65
2023/06/06 02:45:47;;;;;;;12.13;7.45;;;;;;;;;;5051979;28;20029;-65
2023/06/06 02:48:13;;;;;;;11.38;7.10;;;;;;;;;;5051869;28;20017;-65
2023/06/06 02:50:40;;;;;;;8.52;7.07;;;;;;;;;;5051734;28;20078;-65
2023/06/06 02:53:06;;;;;;;12.57;7.40;;;;;;;;;;5051719;28;20115;-65
2023/06/06 02:55:32;;;;;;;10.13;6.68;;;;;;;;;;5051841;28;20041;-65
2023/06/06 02:57:59;;;;;;;8.93;7.35;;;;;;;;;;5052095;28;20019;-65
2023/06/06 03:00:25;;;;;;;9.90;7.65;;;;;;;;;;5051636;28;20040;-65
2023/06/06 03:02:51;;;;;;;8.77;7.47;;;;;;;;;;5051473;28;20023;-65
2023/06/06 03:05:18;;;;;;;11.02;7.50;;;;;;;;;;5052078;28;20036;-65
2023/06/06 03:07:44;;;;;;;10.45;7.30;;;;;;;;;;5051632;28;20114;-65
2023/06/06 03:10:10;;;;;;;9.30;7.25;;;;;;;;;;5051667;28;20025;-65
2023/06/06 03:12:37;;;;;;;18.15;8.25;;;;;;;;;;5051908;28;20082;-65
2023/06/06 03:15:04;;;;;;;10.70;7.40;;;;;;;;;;5051656;28;20489;-65
2023/06/06 03:17:30;;;;;;;12.10;7.75;;;;;;;;;;5050370;28;20119;-65
2023/06/06 03:19:56;;;;;;;22.23;8.25;;;;;;;;;;5051421;28;20027;-65
2023/06/06 03:22:23;;;;;;;10.10;7.18;;;;;;;;;;5051418;28;20503;-65
2023/06/06 03:24:49;;;;;;;12.68;7.70;;;;;;;;;;5051496;28;20045;-65
2023/06/06 03:27:16;;;;;;;13.00;7.68;;;;;;;;;;5051840;28;20028;-65
2023/06/06 03:29:42;;;;;;;11.63;7.10;;;;;;;;;;5051174;28;20512;-65
2023/06/06 03:32:09;;;;;;;10.88;7.63;;;;;;;;;;5051850;28;20025;-65
2023/06/06 03:34:35;;;;;;;14.13;7.47;;;;;;;;;;5050299;28;20025;-65
2023/06/06 03:37:02;;;;;;;10.43;7.03;;;;;;;;;;5051306;28;20033;-65
2023/06/06 03:39:28;;;;;;;11.52;7.78;;;;;;;;;;5051409;28;20481;-65
2023/06/06 03:41:54;;;;;;;8.38;6.70;;;;;;;;;;5052522;28;20029;-65
2023/06/06 03:44:21;;;;;;;13.13;7.15;;;;;;;;;;5055242;28;20027;-65
2023/06/06 03:46:47;;;;;;;9.52;6.65;;;;;;;;;;5055050;28;20031;-65
2023/06/06 03:49:14;;;;;;;8.38;5.70;;;;;;;;;;5054936;28;20021;-65
2023/06/06 03:51:40;;;;;;;8.07;5.90;;;;;;;;;;5054676;28;20443;-65
2023/06/06 03:54:06;;;;;;;9.80;6.15;;;;;;;;;;5054954;28;20024;-65
2023/06/06 03:56:33;;;;;;;7.53;6.22;;;;;;;;;;5055061;28;20045;-65
2023/06/06 03:58:59;;;;;;;7.57;5.82;;;;;;;;;;5054443;28;20489;-65
2023/06/06 04:01:31;;;;;;;7.70;6.05;;;;;;;;;;5054910;28;20017;-65
2023/06/06 04:03:57;;;;;;;8.95;6.22;;;;;;;;;;5054714;28;20054;-65
2023/06/06 04:06:25;;;;;;;9.68;6.90;;;;;;;;;;5054677;28;20021;-65
2023/06/06 04:08:51;;;;;;;8.25;6.35;;;;;;;;;;5054794;28;20032;-65
2023/06/06 04:11:18;;;;;;;8.10;6.00;;;;;;;;;;5054378;28;20414;-65
2023/06/06 04:13:44;;;;;;;11.07;6.60;;;;;;;;;;5054426;28;20027;-65
2023/06/06 04:16:10;;;;;;;9.20;6.20;;;;;;;;;;5054221;28;20041;-65
2023/06/06 04:18:36;;;;;;;8.35;6.40;;;;;;;;;;5054485;28;20021;-65
2023/06/06 04:21:03;;;;;;;9.00;6.13;;;;;;;;;;5054235;28;20404;-65
2023/06/06 04:23:29;;;;;;;7.78;6.07;;;;;;;;;;5054363;28;20047;-64
2023/06/06 04:25:56;;;;;;;9.48;6.82;;;;;;;;;;5054209;28;20035;-65
2023/06/06 04:28:22;;;;;;;13.57;6.55;;;;;;;;;;5054148;28;20025;-65
2023/06/06 04:30:52;;;;;;;7.43;5.75;;;;;;;;;;5054281;28;20025;-65
2023/06/06 04:33:19;;;;;;;7.38;5.97;;;;;;;;;;5054390;28;20035;-65
2023/06/06 04:35:46;;;;;;;9.25;6.10;;;;;;;;;;5053127;28;20045;-65
2023/06/06 04:38:13;;;;;;;9.20;6.55;;;;;;;;;;5053016;28;20025;-65
2023/06/06 04:40:40;;;;;;;8.07;6.57;;;;;;;;;;5054059;28;20029;-65
2023/06/06 04:43:07;;;;;;;9.65;6.22;;;;;;;;;;5053735;28;20023;-65
2023/06/06 04:45:34;;;;;;;10.15;6.60;;;;;;;;;;5054234;28;20031;-65
2023/06/06 04:48:02;;;;;;;8.85;6.35;;;;;;;;;;5054256;28;20013;-65
2023/06/06 04:50:29;;;;;;;8.27;6.72;;;;;;;;;;5054099;28;20033;-65
2023/06/06 04:52:55;;;;;;;10.40;7.10;;;;;;;;;;5053651;28;20025;-65
2023/06/06 04:55:22;;;;;;;10.48;6.97;;;;;;;;;;5053454;28;20029;-65
2023/06/06 04:57:48;;;;;;;10.50;7.07;;;;;;;;;;5053562;28;20035;-65
2023/06/06 05:00:16;;;;;;;9.57;6.90;;;;;;;;;;5052565;28;20035;-65
2023/06/06 05:02:42;;;;;;;13.70;6.90;;;;;;;;;;5053910;28;20032;-65
2023/06/06 05:05:09;;;;;;;7.47;6.68;;;;;;;;;;5053863;28;20029;-65
2023/06/06 05:07:37;;;;;;;11.57;6.85;;;;;;;;;;5053576;28;20021;-65
2023/06/06 05:10:03;;;;;;;11.60;6.63;;;;;;;;;;5053475;28;20032;-65
2023/06/06 05:12:29;;;;;;;12.50;6.95;;;;;;;;;;5053315;28;20028;-65
2023/06/06 05:14:56;;;;;;;9.90;6.32;;;;;;;;;;5053463;28;20389;-65
2023/06/06 05:17:23;;;;;;;7.28;6.20;;;;;;;;;;5053518;28;20029;-65
2023/06/06 05:19:49;;;;;;;7.88;6.28;;;;;;;;;;5053083;28;20528;-65
2023/06/06 05:22:16;;;;;;;7.50;6.10;;;;;;;;;;5053151;28;20511;-65
2023/06/06 05:24:43;;;;;;;7.63;5.50;;;;;;;;;;5053292;28;20048;-65
2023/06/06 05:27:09;;;;;;;10.68;6.60;;;;;;;;;;5053242;28;20028;-65
2023/06/06 05:29:36;;;;;;;7.72;5.60;;;;;;;;;;5053105;28;20031;-65
2023/06/06 05:32:02;;;;;;;8.98;5.45;;;;;;;;;;5053113;28;20028;-65
2023/06/06 05:34:29;;;;;;;8.20;6.10;;;;;;;;;;5053296;28;20031;-65
2023/06/06 05:36:55;;;;;;;9.32;5.65;;;;;;;;;;5052936;28;20405;-65
2023/06/06 05:39:22;;;;;;;8.35;6.00;;;;;;;;;;5053605;28;20029;-65
2023/06/06 05:41:50;;;;;;;9.75;5.95;;;;;;;;;;5052396;28;20396;-65
2023/06/06 05:44:17;;;;;;;7.45;5.57;;;;;;;;;;5052777;28;20389;-65
2023/06/06 05:46:44;;;;;;;6.32;5.72;;;;;;;;;;5052919;28;20017;-65
2023/06/06 05:49:11;;;;;;;9.55;6.32;;;;;;;;;;5052710;28;20478;-65
2023/06/06 05:51:38;;;;;;;7.53;5.70;;;;;;;;;;5052617;28;20107;-65
2023/06/06 05:54:04;;;;;;;10.05;5.93;;;;;;;;;;5052796;28;20051;-65
2023/06/06 05:56:30;;;;;;;8.73;5.50;;;;;;;;;;5052250;28;20025;-65
2023/06/06 05:58:57;;;;;;;8.95;5.82;;;;;;;;;;5052331;28;20545;-65
2023/06/06 06:01:24;;;;;;;9.02;5.40;;;;;;;;;;5052649;28;20424;-65
2023/06/06 06:03:52;;;;;;;7.78;6.13;;;;;;;;;;5052510;28;20027;-65
2023/06/06 06:06:19;;;;;;;6.93;5.40;;;;;;;;;;5051627;28;20033;-65
2023/06/06 06:08:48;;;;;;;9.98;6.10;;;;;;;;;;5052559;28;20025;-65
2023/06/06 06:11:15;;;;;;;10.13;5.97;;;;;;;;;;5052165;28;20033;-65
2023/06/06 06:13:41;;;;;;;7.25;6.32;;;;;;;;;;5052253;28;20029;-65
2023/06/06 06:16:08;;;;;;;9.30;6.57;;;;;;;;;;5048434;28;20035;-65
2023/06/06 06:18:34;;;;;;;9.00;6.18;;;;;;;;;;5050567;28;20032;-65
2023/06/06 06:21:01;;;;;;;6.15;5.35;;;;;;;;;;5051611;28;20404;-65
2023/06/06 06:23:27;;;;;;;7.07;6.15;;;;;;;;;;5053495;28;20045;-65
2023/06/06 06:25:53;;;;;;;8.55;6.13;;;;;;;;;;5055106;28;20388;-65
2023/06/06 06:28:20;;;;;;;7.22;6.05;;;;;;;;;;5051401;28;20017;-65
2023/06/06 06:30:46;;;;;;;6.93;6.22;;;;;;;;;;5051740;28;20101;-65
2023/06/06 06:33:13;;;;;;;9.88;6.05;;;;;;;;;;5042311;28;20454;-65
2023/06/06 06:35:41;;;;;;;7.13;6.38;;;;;;;;;;5039353;28;20103;-65
2023/06/06 06:38:07;;;;;;;8.55;6.22;;;;;;;;;;5038642;28;20026;-65
2023/06/06 06:40:34;;;;;;;7.65;6.13;;;;;;;;;;5040557;28;20039;-65
2023/06/06 06:43:00;;;;;;;9.82;6.20;;;;;;;;;;5049262;28;20021;-65
2023/06/06 06:45:26;;;;;;;7.93;5.95;;;;;;;;;;5051578;28;20016;-65
2023/06/06 06:47:53;;;;;;;7.10;6.10;;;;;;;;;;5051235;28;20046;-65
2023/06/06 06:50:20;;;;;;;8.57;5.97;;;;;;;;;;5050733;28;20025;-66
2023/06/06 06:52:46;;;;;;;11.95;5.68;;;;;;;;;;5051526;28;20027;-66
2023/06/06 06:55:12;;;;;;;7.03;5.88;;;;;;;;;;5050622;28;20021;-65
2023/06/06 06:57:40;;;;;;;8.65;5.78;;;;;;;;;;5051377;28;20035;-65
2023/06/06 07:00:14;;;;;;;7.15;5.57;;;;;;;;;;5051320;28;20028;-65
2023/06/06 07:02:42;;;;;;;5.85;4.85;;;;;;;;;;5051037;28;20029;-65
2023/06/06 07:05:09;;;;;;;7.60;5.25;;;;;;;;;;5051207;28;20029;-66
2023/06/06 07:07:42;;;;;;;6.65;5.40;;;;;;;;;;5051357;28;20017;-66
2023/06/06 07:10:09;;;;;;;5.72;4.50;;;;;;;;;;5050622;28;20329;-65
2023/06/06 07:12:35;;;;;;;6.22;5.63;;;;;;;;;;5051059;28;20027;-66
2023/06/06 07:15:01;;;;;;;7.20;5.63;;;;;;;;;;5062030;28;20467;-66
2023/06/06 07:17:28;;;;;;;7.95;5.55;;;;;;;;;;5051659;28;20033;-66
2023/06/06 07:19:54;;;;;;;10.75;5.03;;;;;;;;;;5055320;28;20376;-66
2023/06/06 07:22:20;;;;;;;7.00;5.30;;;;;;;;;;5054535;28;20041;-65
2023/06/06 07:24:47;;;;;;;5.93;4.55;;;;;;;;;;5052891;28;20067;-65
2023/06/06 07:27:15;;;;;;;9.80;5.25;;;;;;;;;;5052630;28;20039;-66
2023/06/06 07:29:41;;;;;;;7.43;4.93;;;;;;;;;;5053897;28;20035;-65
2023/06/06 07:32:08;;;;;;;6.75;4.90;;;;;;;;;;5054363;28;20381;-65
2023/06/06 07:34:34;;;;;;;7.40;4.85;;;;;;;;;;5053296;28;20041;-66
2023/06/06 07:37:00;;;;;;;7.40;4.95;;;;;;;;;;5052712;28;20037;-65
2023/06/06 07:39:27;;;;;;;6.15;4.90;;;;;;;;;;5053962;28;20021;-66
2023/06/06 07:41:53;;;;;;;5.10;4.57;;;;;;;;;;5054046;28;20025;-66
2023/06/06 07:44:20;;;;;;;6.35;4.80;;;;;;;;;;5054086;28;20507;-65
2023/06/06 07:46:47;;;;;;;6.43;4.47;;;;;;;;;;5053442;28;20485;-66
2023/06/06 07:49:13;;;;;;;8.15;5.18;;;;;;;;;;5053330;28;20408;-66
2023/06/06 07:51:40;;;;;;;6.00;4.70;;;;;;;;;;5053020;28;20025;-66
2023/06/06 07:54:06;;;;;;;4.70;4.25;;;;;;;;;;5052792;28;20408;-66
2023/06/06 07:56:36;;;;;;;6.80;4.32;;;;;;;;;;5053709;28;20045;-66
2023/06/06 07:59:03;;;;;;;8.00;4.20;;;;;;;;;;5053064;28;20474;-65
2023/06/06 08:01:29;;;;;;;5.13;4.57;;;;;;;;;;5052678;28;20025;-66
2023/06/06 08:03:56;;;;;;;4.88;4.45;;;;;;;;;;5054061;28;20033;-65
2023/06/06 08:06:27;;;;;;;4.90;4.30;;;;;;;;;;5052903;28;20470;-66
2023/06/06 08:08:54;;;;;;;4.88;4.28;;;;;;;;;;5053109;28;20013;-64
2023/06/06 08:11:21;;;;;;;5.57;4.50;;;;;;;;;;5052573;28;20037;-65
2023/06/06 08:13:47;;;;;;;5.20;3.95;;;;;;;;;;5053477;28;20021;-66
2023/06/06 08:16:13;;;;;;;4.85;4.35;;;;;;;;;;5053205;28;20408;-64
2023/06/06 08:18:40;;;;;;;5.18;4.40;;;;;;;;;;5053027;28;20481;-64
2023/06/06 08:21:06;;;;;;;5.13;4.18;;;;;;;;;;5052094;28;20394;-64
2023/06/06 08:23:33;;;;;;;6.50;4.22;;;;;;;;;;5052901;28;20039;-64
2023/06/06 08:26:00;;;;;;;4.70;4.30;;;;;;;;;;5052438;28;20033;-64
2023/06/06 08:28:27;;;;;;;4.38;3.97;;;;;;;;;;5051746;28;20024;-64
2023/06/06 08:30:54;;;;;;;4.93;4.40;;;;;;;;;;5052663;28;20060;-64
2023/06/06 08:33:21;;;;;;;5.25;4.53;;;;;;;;;;5052548;28;20025;-63
2023/06/06 08:35:48;;;;;;;6.10;4.85;;;;;;;;;;5051939;28;20037;-62
2023/06/06 08:38:15;;;;;;;7.03;4.85;;;;;;;;;;5052580;28;20331;-63
2023/06/06 08:40:41;;;;;;;5.32;4.85;;;;;;;;;;5057851;28;20512;-66
2023/06/06 08:43:10;;;;;;;6.75;4.88;;;;;;;;;;5057747;28;20021;-66
2023/06/06 08:45:37;;;;;;;7.38;5.00;;;;;;;;;;5052756;28;20017;-66
2023/06/06 08:48:04;;;;;;;9.32;5.53;;;;;;;;;;5052185;28;20027;-66
2023/06/06 08:50:30;;;;;;;8.13;5.80;;;;;;;;;;5050993;28;20013;-66
2023/06/06 08:53:04;;;;;;;6.47;4.80;;;;;;;;;;5051364;28;20029;-66
2023/06/06 08:55:32;;;;;;;5.60;5.10;;;;;;;;;;5055369;28;20040;-66
2023/06/06 08:57:58;;;;;;;5.28;4.65;;;;;;;;;;5049248;28;20416;-66
2023/06/06 09:00:25;;;;;;;5.63;4.72;;;;;;;;;;5051040;28;20500;-66
2023/06/06 09:02:55;;;;;;;5.93;4.50;;;;;;;;;;5049040;28;20021;-64
2023/06/06 09:05:21;;;;;;;5.23;4.70;;;;;;;;;;5046605;28;20500;-63
2023/06/06 09:07:49;;;;;;;7.65;4.63;;;;;;;;;;5049442;28;20036;-64
2023/06/06 09:10:16;;;;;;;5.03;4.55;;;;;;;;;;5051967;28;20499;-64
2023/06/06 09:12:43;;;;;;;4.68;4.28;;;;;;;;;;5051984;28;20493;-64
2023/06/06 09:15:10;;;;;;;5.68;4.57;;;;;;;;;;5050357;28;20572;-64
2023/06/06 09:17:39;;;;;;;7.47;4.70;;;;;;;;;;5051519;28;20033;-63
2023/06/06 09:20:10;;;;;;;5.45;4.45;;;;;;;;;;5050003;28;20039;-64
2023/06/06 09:22:49;;;;;;;5.75;4.38;;;;;;;;;;5046456;28;20622;-63
2023/06/06 09:25:18;;;;;;;4.90;4.40;;;;;;;;;;5051487;28;20044;-64
2023/06/06 09:27:45;;;;;;;4.70;4.10;;;;;;;;;;5049234;28;20033;-64
2023/06/06 09:30:21;;;;;;;4.68;4.28;;;;;;;;;;5053417;28;20030;-64
2023/06/06 09:32:54;;;;;;;5.75;4.07;;;;;;;;;;5050756;28;20023;-64
2023/06/06 09:35:20;;;;;;;6.32;4.10;;;;;;;;;;5050806;28;20025;-64
2023/06/06 09:37:47;;;;;;;4.82;3.92;;;;;;;;;;5051170;28;20051;-64
2023/06/06 09:40:17;;;;;;;6.63;4.10;;;;;;;;;;5046659;28;20025;-64
2023/06/06 09:42:45;;;;;;;5.13;3.85;;;;;;;;;;5049875;28;20483;-64
2023/06/06 09:45:11;;;;;;;4.63;3.95;;;;;;;;;;5051243;28;20400;-64
2023/06/06 09:47:41;;;;;;;5.68;4.00;;;;;;;;;;5051341;28;20035;-64
2023/06/06 09:50:07;;;;;;;;;;;;;;;;;;5051406;28;20121;-64
2023/06/06 09:52:34;;;;;;;5.05;3.72;;;;;;;;;;5078864;28;19919;-64
2023/06/06 09:55:00;;;;;;;3.60;3.20;;;;;;;;;;5050482;28;20024;-64
2023/06/06 09:57:27;;;;;;;3.80;3.40;;;;;;;;;;5048826;28;20045;-65
2023/06/06 09:59:54;;;;;;;4.35;3.42;;;;;;;;;;5050264;28;20021;-64
2023/06/06 10:02:21;;;;;;;5.13;3.97;;;;;;;;;;5035954;28;20047;-65
2023/06/06 10:04:48;;;;;;;4.72;3.72;;;;;;;;;;5049748;28;20021;-65
2023/06/06 10:07:16;;;;;;;5.78;3.65;;;;;;;;;;5050821;28;20021;-65
2023/06/06 10:09:42;;;;;;;5.40;3.58;;;;;;;;;;5050517;28;20025;-65
2023/06/06 10:12:09;;;;;;;10.02;3.75;;;;;;;;;;5050614;28;20031;-65
2023/06/06 10:14:36;;;;;;;4.15;3.47;;;;;;;;;;5050804;28;20033;-65
2023/06/06 10:17:04;;;;;;;8.10;3.63;;;;;;;;;;5050474;28;20036;-65
2023/06/06 10:19:31;;;;;;;4.38;3.42;;;;;;;;;;5051102;28;20039;-64
2023/06/06 10:21:58;;;;;;;4.80;3.25;;;;;;;;;;5050949;28;20031;-65
2023/06/06 10:24:25;;;;;;;6.32;2.97;;;;;;;;;;5050636;28;20495;-64
2023/06/06 10:27:06;;;;;;;4.13;3.13;;;;;;;;;;5050726;28;20040;-64
2023/06/06 10:29:38;;;;;;;5.10;3.60;;;;;;;;;;5050711;28;20037;-64
2023/06/06 10:32:12;;;;;;;3.63;3.33;;;;;;;;;;5050618;28;20024;-64
2023/06/06 10:34:40;;;;;;;3.63;2.95;;;;;;;;;;5051274;28;20017;-64
2023/06/06 10:37:16;;;;;;;5.95;3.42;;;;;;;;;;5050909;28;20536;-64
2023/06/06 10:39:46;;;;;;;6.03;3.15;;;;;;;;;;5051173;28;20031;-64
2023/06/06 10:42:13;;;;;;;3.63;3.13;;;;;;;;;;5050765;28;20082;-64
2023/06/06 10:44:54;;;;;;;3.47;2.90;;;;;;;;;;5051269;28;20032;-64
2023/06/06 10:47:21;;;;;;;3.30;2.97;;;;;;;;;;5050558;28;20051;-64
2023/06/06 10:50:06;;;;;;;3.78;2.90;;;;;;;;;;5050852;28;20028;-65
2023/06/06 10:52:40;;;;;;;4.28;2.80;;;;;;;;;;5049978;28;20025;-64
2023/06/06 10:55:16;;;;;;;3.80;2.90;;;;;;;;;;5049935;28;20027;-64
2023/06/06 10:57:53;;;;;;;4.80;2.70;;;;;;;;;;5050604;28;20489;-64
2023/06/06 11:00:25;;;;;;;3.28;2.97;;;;;;;;;;5050592;28;20029;-64
2023/06/06 11:02:57;;;;;;;6.90;3.35;;;;;;;;;;5049449;28;20527;-64
2023/06/06 11:05:23;;;;;;;3.45;3.10;;;;;;;;;;5050560;28;20024;-64
2023/06/06 11:07:50;;;;;;;3.22;2.88;;;;;;;;;;5050819;28;20033;-64
2023/06/06 11:10:23;;;;;;;3.47;2.80;;;;;;;;;;5050863;28;20138;-64
2023/06/06 11:12:50;;;;;;;4.47;2.97;;;;;;;;;;5050741;28;20404;-64
2023/06/06 11:15:42;;;;;;;3.97;2.92;;;;;;;;;;5049859;28;20036;-64
2023/06/06 11:18:09;;;;;;;7.20;3.00;;;;;;;;;;5049243;28;20037;-65
2023/06/06 11:20:42;;;;;;;3.70;2.92;;;;;;;;;;5050737;28;20025;-64
2023/06/06 11:23:11;;;;;;;4.30;3.00;;;;;;;;;;5050630;28;20043;-64
2023/06/06 11:25:38;;;;;;;;;;;;;;;;;;5050812;28;20490;-64
2023/06/06 11:28:08;;;;;;;3.17;2.88;;;;;;;;;;5050789;28;19921;-64
2023/06/06 11:30:36;;;;;;;3.85;2.92;;;;;;;;;;5050047;28;20389;-64
2023/06/06 11:33:07;;;;;;;3.28;2.92;;;;;;;;;;5050516;28;20061;-63
2023/06/06 11:35:34;;;;;;;3.17;2.88;;;;;;;;;;5047120;28;20028;-64
2023/06/06 11:38:00;;;;;;;3.70;3.00;;;;;;;;;;5050103;28;20098;-64
2023/06/06 11:40:26;;;;;;;3.95;3.10;;;;;;;;;;5054450;28;20491;-64
2023/06/06 11:42:53;;;;;;;7.68;3.13;;;;;;;;;;5049527;28;20031;-64
2023/06/06 11:45:20;;;;;;;4.15;2.90;;;;;;;;;;5053298;28;20489;-64
2023/06/06 11:47:47;;;;;;;4.72;3.10;;;;;;;;;;5060531;28;20467;-64
2023/06/06 11:50:13;;;;;;;4.57;3.20;;;;;;;;;;5049342;28;20033;-64
2023/06/06 11:52:50;;;;;;;4.15;3.30;;;;;;;;;;5049443;28;20025;-64
2023/06/06 11:55:17;;;;;;;4.53;2.92;;;;;;;;;;5050041;28;20033;-64
2023/06/06 11:57:44;;;;;;;4.45;3.20;;;;;;;;;;5049682;28;20264;-63
2023/06/06 12:00:17;;;;;;;4.78;3.50;;;;;;;;;;5049546;28;20025;-63
2023/06/06 12:02:51;;;;;;;3.42;2.83;;;;;;;;;;5049963;28;20021;-64
2023/06/06 12:05:19;;;;;;;4.82;3.30;;;;;;;;;;5047365;28;20028;-64
2023/06/06 12:07:47;;;;;;;4.65;3.17;;;;;;;;;;5052621;28;20498;-64
2023/06/06 12:10:21;;;;;;;3.58;3.10;;;;;;;;;;5054479;28;20037;-63
2023/06/06 12:12:48;;;;;;;3.50;3.13;;;;;;;;;;5055619;28;20029;-63
2023/06/06 12:15:15;;;;;;;3.70;3.25;;;;;;;;;;5052398;28;20017;-64
2023/06/06 12:17:41;;;;;;;7.28;3.70;;;;;;;;;;5055089;28;20037;-66
2023/06/06 12:20:08;;;;;;;8.60;3.45;;;;;;;;;;5050135;28;20035;-64
2023/06/06 12:22:35;;;;;;;4.57;3.45;;;;;;;;;;5052827;28;20036;-64
2023/06/06 12:25:03;;;;;;;4.93;3.75;;;;;;;;;;5051929;28;20049;-63
2023/06/06 12:27:33;;;;;;;3.67;3.30;;;;;;;;;;5052284;28;20089;-66
2023/06/06 12:30:00;;;;;;;4.70;3.63;;;;;;;;;;5052815;28;20074;-65
2023/06/06 12:32:29;;;;;;;4.30;3.72;;;;;;;;;;5051681;28;20502;-65
2023/06/06 12:34:59;;;;;;;7.05;3.72;;;;;;;;;;5049687;28;20031;-66
2023/06/06 12:37:35;;;;;;;4.85;3.70;;;;;;;;;;5046371;28;20028;-66
2023/06/06 12:40:08;;;;;;;8.40;3.50;;;;;;;;;;5047041;28;20040;-65
2023/06/06 12:42:35;;;;;;;4.43;3.90;;;;;;;;;;5052281;28;20035;-65
2023/06/06 12:45:01;;;;;;;5.43;3.53;;;;;;;;;;5052572;28;20033;-65
2023/06/06 12:47:28;;;;;;;7.93;3.40;;;;;;;;;;5052130;28;20029;-65
2023/06/06 12:49:54;;;;;;;5.95;3.53;;;;;;;;;;5052203;28;20048;-64
2023/06/06 12:52:21;;;;;;;5.15;3.55;;;;;;;;;;5051465;28;20396;-65
2023/06/06 12:54:47;;;;;;;3.75;3.22;;;;;;;;;;5052591;28;20447;-65
2023/06/06 12:57:15;;;;;;;4.90;3.47;;;;;;;;;;5050394;28;20438;-65
2023/06/06 12:59:44;;;;;;;5.20;3.40;;;;;;;;;;5052150;28;20021;-66
2023/06/06 13:02:11;;;;;;;4.85;3.28;;;;;;;;;;5052175;28;20146;-65
2023/06/06 13:04:38;;;;;;;4.40;3.28;;;;;;;;;;5052343;28;20039;-65
2023/06/06 13:07:05;;;;;;;5.15;3.33;;;;;;;;;;5051609;28;20036;-66
2023/06/06 13:09:31;;;;;;;4.32;3.55;;;;;;;;;;5050523;28;20459;-65
2023/06/06 13:11:59;;;;;;;4.50;3.38;;;;;;;;;;5040144;28;20450;-66
2023/06/06 13:14:26;;;;;;;7.10;3.60;;;;;;;;;;5050933;28;20032;-65
2023/06/06 13:16:52;;;;;;;5.40;3.70;;;;;;;;;;5051257;28;20431;-66
2023/06/06 13:19:19;;;;;;;3.78;3.33;;;;;;;;;;5050932;28;20041;-66
2023/06/06 13:21:46;;;;;;;5.03;3.47;;;;;;;;;;5050817;28;20383;-66
2023/06/06 13:24:13;;;;;;;6.20;3.80;;;;;;;;;;5051381;28;20498;-66
2023/06/06 13:26:43;;;;;;;4.78;3.40;;;;;;;;;;5051408;28;20037;-65
2023/06/06 13:29:12;;;;;;;4.85;3.72;;;;;;;;;;5051393;28;20025;-65
2023/06/06 13:31:39;;;;;;;6.28;4.10;;;;;;;;;;5050797;28;20037;-65
2023/06/06 13:34:06;;;;;;;4.00;3.20;;;;;;;;;;5051838;28;20023;-65
2023/06/06 13:36:33;;;;;;;5.47;3.70;;;;;;;;;;5051682;28;20035;-65
2023/06/06 13:38:59;;;;;;;5.57;3.70;;;;;;;;;;5050611;28;20037;-66
2023/06/06 13:41:26;;;;;;;7.30;3.30;;;;;;;;;;5051004;28;20029;-65
2023/06/06 13:43:52;;;;;;;7.82;3.60;;;;;;;;;;5051228;28;20017;-65
2023/06/06 13:46:19;;;;;;;6.10;4.00;;;;;;;;;;5051558;28;20037;-65
2023/06/06 13:48:48;;;;;;;4.50;3.53;;;;;;;;;;5051522;28;20032;-65
2023/06/06 13:51:14;;;;;;;4.40;3.53;;;;;;;;;;5050210;28;20112;-65
2023/06/06 13:53:41;;;;;;;5.43;3.90;;;;;;;;;;5050409;28;20014;-65
2023/06/06 13:56:08;;;;;;;5.85;3.63;;;;;;;;;;5050604;28;20023;-65
2023/06/06 13:58:40;;;;;;;6.40;3.65;;;;;;;;;;5051318;28;20029;-66
2023/06/06 14:01:06;;;;;;;7.20;4.07;;;;;;;;;;5051051;28;20029;-65
2023/06/06 14:03:34;;;;;;;4.53;4.05;;;;;;;;;;5050687;28;20523;-65
2023/06/06 14:06:00;;;;;;;4.15;3.72;;;;;;;;;;5050610;28;20063;-65
2023/06/06 14:08:27;;;;;;;8.77;3.80;;;;;;;;;;5050231;28;20041;-65
2023/06/06 14:10:56;;;;;;;5.40;3.85;;;;;;;;;;5048462;28;20024;-66
2023/06/06 14:13:22;;;;;;;6.68;4.10;;;;;;;;;;5049326;28;20400;-65
2023/06/06 14:15:49;;;;;;;5.68;4.20;;;;;;;;;;5051342;28;20196;-65
2023/06/06 14:18:16;;;;;;;4.53;4.00;;;;;;;;;;5050156;28;20028;-65
2023/06/06 14:20:59;;;;;;;8.13;4.20;;;;;;;;;;5050451;28;20028;-65
2023/06/06 14:23:26;;;;;;;4.47;3.85;;;;;;;;;;5048918;28;20044;-65
2023/06/06 14:25:52;;;;;;;4.57;4.13;;;;;;;;;;5049822;28;20490;-66
2023/06/06 14:28:19;;;;;;;5.25;3.65;;;;;;;;;;5050140;28;20399;-65
2023/06/06 14:30:45;;;;;;;5.53;3.88;;;;;;;;;;5049237;28;20036;-66
2023/06/06 14:33:12;;;;;;;5.43;3.92;;;;;;;;;;5050750;28;20029;-65
2023/06/06 14:35:38;;;;;;;4.82;3.67;;;;;;;;;;5050480;28;20027;-65
2023/06/06 14:38:05;;;;;;;7.13;3.95;;;;;;;;;;5050341;28;20044;-65
2023/06/06 14:40:31;;;;;;;5.13;3.83;;;;;;;;;;5050077;28;20029;-66
2023/06/06 14:42:57;;;;;;;5.85;3.90;;;;;;;;;;5050560;28;20021;-65